sensor_id;sensor_type;location;lat;lon;timestamp;P1;durP1;ratioP1;P2;durP2;ratioP2
68386;SDS011;55338;43.062;25.624;2022-10-26T00:00:26;15.77;;;5.00;;
68386;SDS011;55338;43.062;25.624;2022-10-26T00:02:53;16.65;;;5.10;;
68386;SDS011;55338;43.062;25.624;2022-10-26T00:05:19;14.77;;;4.85;;
68386;SDS011;55338;43.062;25.624;2022-10-26T00:07:46;11.45;;;4.13;;
68386;SDS011;55338;43.062;25.624;2022-10-26T00:10:13;9.48;;;4.70;;
68386;SDS011;55338;43.062;25.624;2022-10-26T00:12:38;20.15;;;5.13;;
68386;SDS011;55338;43.062;25.624;2022-10-26T00:15:05;10.30;;;4.13;;
68386;SDS011;55338;43.062;25.624;2022-10-26T00:17:31;10.60;;;4.75;;
68386;SDS011;55338;43.062;25.624;2022-10-26T00:19:57;9.73;;;3.87;;
68386;SDS011;55338;43.062;25.624;2022-10-26T00:22:24;17.48;;;4.82;;
68386;SDS011;55338;43.062;25.624;2022-10-26T00:24:50;10.55;;;5.18;;
68386;SDS011;55338;43.062;25.624;2022-10-26T00:27:16;12.73;;;4.90;;
68386;SDS011;55338;43.062;25.624;2022-10-26T00:29:42;14.83;;;4.67;;
68386;SDS011;55338;43.062;25.624;2022-10-26T00:32:08;13.23;;;4.75;;
68386;SDS011;55338;43.062;25.624;2022-10-26T00:34:34;11.07;;;4.37;;
68386;SDS011;55338;43.062;25.624;2022-10-26T00:37:00;10.27;;;4.43;;
68386;SDS011;55338;43.062;25.624;2022-10-26T00:39:25;18.55;;;4.78;;
68386;SDS011;55338;43.062;25.624;2022-10-26T00:41:51;13.07;;;4.70;;
68386;SDS011;55338;43.062;25.624;2022-10-26T00:47:30;12.75;;;4.68;;
68386;SDS011;55338;43.062;25.624;2022-10-26T00:50:27;17.42;;;5.20;;
68386;SDS011;55338;43.062;25.624;2022-10-26T00:53:04;10.27;;;4.10;;
68386;SDS011;55338;43.062;25.624;2022-10-26T00:55:35;10.40;;;4.18;;
68386;SDS011;55338;43.062;25.624;2022-10-26T00:58:03;15.07;;;4.18;;
68386;SDS011;55338;43.062;25.624;2022-10-26T01:00:32;8.77;;;3.85;;
68386;SDS011;55338;43.062;25.624;2022-10-26T01:02:59;11.83;;;4.13;;
68386;SDS011;55338;43.062;25.624;2022-10-26T01:05:29;11.52;;;4.18;;
68386;SDS011;55338;43.062;25.624;2022-10-26T01:07:56;7.95;;;4.20;;
68386;SDS011;55338;43.062;25.624;2022-10-26T01:10:23;11.18;;;4.20;;
68386;SDS011;55338;43.062;25.624;2022-10-26T01:12:51;8.87;;;4.53;;
68386;SDS011;55338;43.062;25.624;2022-10-26T01:15:17;12.98;;;4.05;;
68386;SDS011;55338;43.062;25.624;2022-10-26T01:17:50;9.00;;;3.90;;
68386;SDS011;55338;43.062;25.624;2022-10-26T01:28:39;9.90;;;3.97;;
68386;SDS011;55338;43.062;25.624;2022-10-26T01:31:27;8.25;;;4.10;;
68386;SDS011;55338;43.062;25.624;2022-10-26T01:34:42;11.23;;;4.25;;
68386;SDS011;55338;43.062;25.624;2022-10-26T01:37:05;8.32;;;3.60;;
68386;SDS011;55338;43.062;25.624;2022-10-26T01:39:37;7.47;;;3.60;;
68386;SDS011;55338;43.062;25.624;2022-10-26T01:42:26;9.35;;;3.40;;
68386;SDS011;55338;43.062;25.624;2022-10-26T01:44:55;8.88;;;3.58;;
68386;SDS011;55338;43.062;25.624;2022-10-26T01:47:24;8.48;;;3.55;;
68386;SDS011;55338;43.062;25.624;2022-10-26T01:49:54;9.55;;;3.78;;
68386;SDS011;55338;43.062;25.624;2022-10-26T01:52:23;7.50;;;3.40;;
68386;SDS011;55338;43.062;25.624;2022-10-26T01:54:49;9.90;;;3.63;;
68386;SDS011;55338;43.062;25.624;2022-10-26T01:57:16;11.35;;;3.90;;
68386;SDS011;55338;43.062;25.624;2022-10-26T02:02:53;6.60;;;3.20;;
68386;SDS011;55338;43.062;25.624;2022-10-26T02:08:26;7.40;;;3.60;;
68386;SDS011;55338;43.062;25.624;2022-10-26T02:21:30;9.82;;;3.38;;
68386;SDS011;55338;43.062;25.624;2022-10-26T02:24:02;9.07;;;3.73;;
68386;SDS011;55338;43.062;25.624;2022-10-26T02:26:29;13.30;;;3.80;;
68386;SDS011;55338;43.062;25.624;2022-10-26T02:29:02;8.57;;;3.10;;
68386;SDS011;55338;43.062;25.624;2022-10-26T02:31:31;8.77;;;3.00;;
68386;SDS011;55338;43.062;25.624;2022-10-26T02:34:01;16.92;;;3.95;;
68386;SDS011;55338;43.062;25.624;2022-10-26T02:36:29;10.07;;;3.60;;
68386;SDS011;55338;43.062;25.624;2022-10-26T02:38:58;27.48;;;4.10;;
68386;SDS011;55338;43.062;25.624;2022-10-26T02:41:27;8.15;;;3.60;;
68386;SDS011;55338;43.062;25.624;2022-10-26T02:44:03;8.90;;;3.08;;
68386;SDS011;55338;43.062;25.624;2022-10-26T02:46:37;10.18;;;3.03;;
68386;SDS011;55338;43.062;25.624;2022-10-26T02:49:03;12.90;;;3.47;;
68386;SDS011;55338;43.062;25.624;2022-10-26T02:51:41;6.93;;;3.22;;
68386;SDS011;55338;43.062;25.624;2022-10-26T02:57:15;8.43;;;3.20;;
68386;SDS011;55338;43.062;25.624;2022-10-26T02:59:44;5.90;;;2.95;;
68386;SDS011;55338;43.062;25.624;2022-10-26T03:02:12;9.10;;;3.10;;
68386;SDS011;55338;43.062;25.624;2022-10-26T03:04:43;11.50;;;3.30;;
68386;SDS011;55338;43.062;25.624;2022-10-26T03:07:09;12.13;;;3.80;;
68386;SDS011;55338;43.062;25.624;2022-10-26T03:09:35;12.50;;;3.70;;
68386;SDS011;55338;43.062;25.624;2022-10-26T03:12:00;9.10;;;3.78;;
68386;SDS011;55338;43.062;25.624;2022-10-26T03:14:26;16.33;;;3.40;;
68386;SDS011;55338;43.062;25.624;2022-10-26T03:16:52;25.53;;;4.20;;
68386;SDS011;55338;43.062;25.624;2022-10-26T03:19:18;12.10;;;3.95;;
68386;SDS011;55338;43.062;25.624;2022-10-26T03:21:43;11.93;;;4.00;;
68386;SDS011;55338;43.062;25.624;2022-10-26T03:24:09;10.50;;;3.58;;
68386;SDS011;55338;43.062;25.624;2022-10-26T03:26:35;8.50;;;3.80;;
68386;SDS011;55338;43.062;25.624;2022-10-26T03:29:01;12.80;;;3.75;;
68386;SDS011;55338;43.062;25.624;2022-10-26T03:31:27;7.65;;;3.67;;
68386;SDS011;55338;43.062;25.624;2022-10-26T03:33:52;9.93;;;4.60;;
68386;SDS011;55338;43.062;25.624;2022-10-26T03:36:18;12.10;;;3.13;;
68386;SDS011;55338;43.062;25.624;2022-10-26T03:38:44;9.33;;;3.53;;
68386;SDS011;55338;43.062;25.624;2022-10-26T03:41:10;9.98;;;3.55;;
68386;SDS011;55338;43.062;25.624;2022-10-26T03:43:35;12.37;;;3.23;;
68386;SDS011;55338;43.062;25.624;2022-10-26T03:46:01;6.97;;;3.28;;
68386;SDS011;55338;43.062;25.624;2022-10-26T03:48:27;6.50;;;2.80;;
68386;SDS011;55338;43.062;25.624;2022-10-26T03:50:56;9.23;;;3.30;;
68386;SDS011;55338;43.062;25.624;2022-10-26T03:53:23;9.13;;;3.23;;
68386;SDS011;55338;43.062;25.624;2022-10-26T03:55:49;14.15;;;4.60;;
68386;SDS011;55338;43.062;25.624;2022-10-26T03:58:15;23.38;;;4.18;;
68386;SDS011;55338;43.062;25.624;2022-10-26T04:00:40;15.73;;;3.70;;
68386;SDS011;55338;43.062;25.624;2022-10-26T04:03:06;22.35;;;3.72;;
68386;SDS011;55338;43.062;25.624;2022-10-26T04:05:32;13.23;;;3.63;;
68386;SDS011;55338;43.062;25.624;2022-10-26T04:07:58;12.60;;;3.55;;
68386;SDS011;55338;43.062;25.624;2022-10-26T04:10:28;11.43;;;3.88;;
68386;SDS011;55338;43.062;25.624;2022-10-26T04:12:54;12.93;;;3.10;;
68386;SDS011;55338;43.062;25.624;2022-10-26T04:15:21;9.77;;;3.97;;
68386;SDS011;55338;43.062;25.624;2022-10-26T04:17:47;12.50;;;3.47;;
68386;SDS011;55338;43.062;25.624;2022-10-26T04:20:19;11.25;;;3.90;;
68386;SDS011;55338;43.062;25.624;2022-10-26T04:22:44;11.93;;;3.00;;
68386;SDS011;55338;43.062;25.624;2022-10-26T04:25:10;12.02;;;3.28;;
68386;SDS011;55338;43.062;25.624;2022-10-26T04:27:37;17.98;;;3.72;;
68386;SDS011;55338;43.062;25.624;2022-10-26T04:30:03;15.98;;;4.28;;
68386;SDS011;55338;43.062;25.624;2022-10-26T04:32:32;11.05;;;3.42;;
68386;SDS011;55338;43.062;25.624;2022-10-26T04:34:58;11.25;;;3.78;;
68386;SDS011;55338;43.062;25.624;2022-10-26T04:37:23;13.55;;;4.22;;
68386;SDS011;55338;43.062;25.624;2022-10-26T04:39:49;24.70;;;4.15;;
68386;SDS011;55338;43.062;25.624;2022-10-26T04:42:15;15.65;;;3.45;;
68386;SDS011;55338;43.062;25.624;2022-10-26T04:44:40;16.23;;;4.20;;
68386;SDS011;55338;43.062;25.624;2022-10-26T04:47:06;18.85;;;4.07;;
68386;SDS011;55338;43.062;25.624;2022-10-26T04:49:32;13.70;;;3.70;;
68386;SDS011;55338;43.062;25.624;2022-10-26T04:51:58;13.73;;;3.25;;
68386;SDS011;55338;43.062;25.624;2022-10-26T04:54:23;16.30;;;4.70;;
68386;SDS011;55338;43.062;25.624;2022-10-26T04:56:50;21.38;;;3.72;;
68386;SDS011;55338;43.062;25.624;2022-10-26T04:59:16;23.98;;;4.53;;
68386;SDS011;55338;43.062;25.624;2022-10-26T05:01:41;14.10;;;3.90;;
68386;SDS011;55338;43.062;25.624;2022-10-26T05:04:07;15.77;;;4.13;;
68386;SDS011;55338;43.062;25.624;2022-10-26T05:06:33;13.17;;;4.03;;
68386;SDS011;55338;43.062;25.624;2022-10-26T05:08:59;15.60;;;3.90;;
68386;SDS011;55338;43.062;25.624;2022-10-26T05:11:26;13.15;;;4.55;;
68386;SDS011;55338;43.062;25.624;2022-10-26T05:13:51;20.33;;;4.30;;
68386;SDS011;55338;43.062;25.624;2022-10-26T05:16:17;18.08;;;5.60;;
68386;SDS011;55338;43.062;25.624;2022-10-26T05:18:43;21.57;;;7.00;;
68386;SDS011;55338;43.062;25.624;2022-10-26T05:21:11;23.73;;;5.75;;
68386;SDS011;55338;43.062;25.624;2022-10-26T05:23:43;25.17;;;5.50;;
68386;SDS011;55338;43.062;25.624;2022-10-26T05:26:19;18.95;;;4.85;;
68386;SDS011;55338;43.062;25.624;2022-10-26T05:28:46;18.67;;;4.03;;
68386;SDS011;55338;43.062;25.624;2022-10-26T05:31:12;19.98;;;4.88;;
68386;SDS011;55338;43.062;25.624;2022-10-26T05:33:38;21.65;;;4.35;;
68386;SDS011;55338;43.062;25.624;2022-10-26T05:36:04;23.83;;;5.17;;
68386;SDS011;55338;43.062;25.624;2022-10-26T05:38:30;32.08;;;5.32;;
68386;SDS011;55338;43.062;25.624;2022-10-26T05:40:56;22.77;;;5.70;;
68386;SDS011;55338;43.062;25.624;2022-10-26T05:43:23;19.77;;;4.95;;
68386;SDS011;55338;43.062;25.624;2022-10-26T05:45:51;32.77;;;7.23;;
68386;SDS011;55338;43.062;25.624;2022-10-26T05:48:17;38.80;;;6.57;;
68386;SDS011;55338;43.062;25.624;2022-10-26T05:50:44;36.13;;;6.25;;
68386;SDS011;55338;43.062;25.624;2022-10-26T05:53:10;29.52;;;6.43;;
68386;SDS011;55338;43.062;25.624;2022-10-26T05:55:36;32.87;;;7.80;;
68386;SDS011;55338;43.062;25.624;2022-10-26T05:58:02;30.23;;;8.00;;
68386;SDS011;55338;43.062;25.624;2022-10-26T06:00:28;27.33;;;7.53;;
68386;SDS011;55338;43.062;25.624;2022-10-26T06:03:18;19.02;;;6.95;;
68386;SDS011;55338;43.062;25.624;2022-10-26T06:08:20;35.80;;;7.30;;
68386;SDS011;55338;43.062;25.624;2022-10-26T06:10:47;30.98;;;7.22;;
68386;SDS011;55338;43.062;25.624;2022-10-26T06:13:14;30.42;;;7.20;;
68386;SDS011;55338;43.062;25.624;2022-10-26T06:16:02;32.38;;;7.65;;
68386;SDS011;55338;43.062;25.624;2022-10-26T06:27:30;41.03;;;8.27;;
68386;SDS011;55338;43.062;25.624;2022-10-26T06:30:19;28.95;;;7.72;;
68386;SDS011;55338;43.062;25.624;2022-10-26T06:32:47;28.98;;;9.30;;
68386;SDS011;55338;43.062;25.624;2022-10-26T06:35:21;27.07;;;9.37;;
68386;SDS011;55338;43.062;25.624;2022-10-26T06:37:55;26.30;;;11.00;;
68386;SDS011;55338;43.062;25.624;2022-10-26T06:40:25;54.13;;;23.15;;
68386;SDS011;55338;43.062;25.624;2022-10-26T06:42:54;34.10;;;16.33;;
68386;SDS011;55338;43.062;25.624;2022-10-26T06:45:20;41.08;;;14.93;;
68386;SDS011;55338;43.062;25.624;2022-10-26T06:56:10;53.92;;;25.70;;
68386;SDS011;55338;43.062;25.624;2022-10-26T06:58:37;54.70;;;26.38;;
68386;SDS011;55338;43.062;25.624;2022-10-26T07:01:05;51.80;;;22.97;;
68386;SDS011;55338;43.062;25.624;2022-10-26T07:03:34;34.67;;;17.98;;
68386;SDS011;55338;43.062;25.624;2022-10-26T07:06:00;34.30;;;15.80;;
68386;SDS011;55338;43.062;25.624;2022-10-26T07:08:26;35.37;;;17.17;;
68386;SDS011;55338;43.062;25.624;2022-10-26T07:10:51;30.17;;;12.68;;
68386;SDS011;55338;43.062;25.624;2022-10-26T07:13:17;34.10;;;14.07;;
68386;SDS011;55338;43.062;25.624;2022-10-26T07:15:43;23.73;;;12.00;;
68386;SDS011;55338;43.062;25.624;2022-10-26T07:18:09;18.75;;;11.32;;
68386;SDS011;55338;43.062;25.624;2022-10-26T07:20:36;23.90;;;12.00;;
68386;SDS011;55338;43.062;25.624;2022-10-26T07:23:03;19.40;;;9.65;;
68386;SDS011;55338;43.062;25.624;2022-10-26T07:25:35;14.70;;;5.97;;
68386;SDS011;55338;43.062;25.624;2022-10-26T07:28:04;12.93;;;6.28;;
68386;SDS011;55338;43.062;25.624;2022-10-26T07:30:31;12.97;;;5.80;;
68386;SDS011;55338;43.062;25.624;2022-10-26T07:32:58;16.27;;;6.70;;
68386;SDS011;55338;43.062;25.624;2022-10-26T07:35:34;17.27;;;7.40;;
68386;SDS011;55338;43.062;25.624;2022-10-26T07:38:00;21.17;;;7.95;;
68386;SDS011;55338;43.062;25.624;2022-10-26T07:40:26;23.73;;;8.37;;
68386;SDS011;55338;43.062;25.624;2022-10-26T07:42:56;12.40;;;6.93;;
68386;SDS011;55338;43.062;25.624;2022-10-26T07:45:24;19.60;;;8.85;;
68386;SDS011;55338;43.062;25.624;2022-10-26T07:47:51;15.35;;;6.75;;
68386;SDS011;55338;43.062;25.624;2022-10-26T07:50:17;13.33;;;7.17;;
68386;SDS011;55338;43.062;25.624;2022-10-26T07:52:43;14.07;;;8.07;;
68386;SDS011;55338;43.062;25.624;2022-10-26T07:55:09;13.38;;;5.68;;
68386;SDS011;55338;43.062;25.624;2022-10-26T07:57:35;6.15;;;2.80;;
68386;SDS011;55338;43.062;25.624;2022-10-26T08:00:02;4.17;;;2.50;;
68386;SDS011;55338;43.062;25.624;2022-10-26T08:02:30;6.68;;;3.13;;
68386;SDS011;55338;43.062;25.624;2022-10-26T08:04:56;6.05;;;2.88;;
68386;SDS011;55338;43.062;25.624;2022-10-26T08:07:22;7.47;;;2.30;;
68386;SDS011;55338;43.062;25.624;2022-10-26T08:09:51;6.63;;;2.80;;
68386;SDS011;55338;43.062;25.624;2022-10-26T08:12:17;7.82;;;2.63;;
68386;SDS011;55338;43.062;25.624;2022-10-26T08:14:44;4.53;;;2.22;;
68386;SDS011;55338;43.062;25.624;2022-10-26T08:17:09;9.60;;;2.97;;
68386;SDS011;55338;43.062;25.624;2022-10-26T08:19:35;17.40;;;3.60;;
68386;SDS011;55338;43.062;25.624;2022-10-26T08:22:01;6.82;;;2.50;;
68386;SDS011;55338;43.062;25.624;2022-10-26T08:24:28;8.15;;;2.75;;
68386;SDS011;55338;43.062;25.624;2022-10-26T08:26:54;6.60;;;2.17;;
68386;SDS011;55338;43.062;25.624;2022-10-26T08:29:20;13.10;;;2.80;;
68386;SDS011;55338;43.062;25.624;2022-10-26T08:31:46;5.30;;;2.45;;
68386;SDS011;55338;43.062;25.624;2022-10-26T08:34:12;9.73;;;2.60;;
68386;SDS011;55338;43.062;25.624;2022-10-26T08:36:38;5.90;;;2.38;;
68386;SDS011;55338;43.062;25.624;2022-10-26T08:39:04;7.87;;;2.70;;
68386;SDS011;55338;43.062;25.624;2022-10-26T08:41:43;8.50;;;2.20;;
68386;SDS011;55338;43.062;25.624;2022-10-26T08:46:47;13.05;;;3.00;;
68386;SDS011;55338;43.062;25.624;2022-10-26T08:49:22;9.83;;;2.43;;
68386;SDS011;55338;43.062;25.624;2022-10-26T08:51:53;12.13;;;3.13;;
68386;SDS011;55338;43.062;25.624;2022-10-26T08:54:39;4.93;;;1.95;;
68386;SDS011;55338;43.062;25.624;2022-10-26T08:59:54;4.57;;;3.13;;
68386;SDS011;55338;43.062;25.624;2022-10-26T09:02:25;9.10;;;3.03;;
68386;SDS011;55338;43.062;25.624;2022-10-26T09:04:52;7.43;;;2.05;;
68386;SDS011;55338;43.062;25.624;2022-10-26T09:13:07;7.22;;;2.50;;
68386;SDS011;55338;43.062;25.624;2022-10-26T09:24:29;6.63;;;2.38;;
68386;SDS011;55338;43.062;25.624;2022-10-26T09:27:16;4.50;;;1.98;;
68386;SDS011;55338;43.062;25.624;2022-10-26T09:29:58;4.83;;;2.37;;
68386;SDS011;55338;43.062;25.624;2022-10-26T09:32:37;5.15;;;2.03;;
68386;SDS011;55338;43.062;25.624;2022-10-26T09:35:12;4.22;;;2.10;;
68386;SDS011;55338;43.062;25.624;2022-10-26T09:37:44;6.18;;;2.67;;
68386;SDS011;55338;43.062;25.624;2022-10-26T09:43:30;11.03;;;2.77;;
68386;SDS011;55338;43.062;25.624;2022-10-26T09:46:08;3.78;;;1.70;;
68386;SDS011;55338;43.062;25.624;2022-10-26T09:49:16;3.53;;;2.03;;
68386;SDS011;55338;43.062;25.624;2022-10-26T09:51:37;6.90;;;2.10;;
68386;SDS011;55338;43.062;25.624;2022-10-26T09:54:11;7.70;;;2.25;;
68386;SDS011;55338;43.062;25.624;2022-10-26T09:56:40;5.97;;;2.23;;
68386;SDS011;55338;43.062;25.624;2022-10-26T09:59:11;3.65;;;2.08;;
68386;SDS011;55338;43.062;25.624;2022-10-26T10:01:39;4.13;;;2.50;;
68386;SDS011;55338;43.062;25.624;2022-10-26T10:06:47;7.50;;;2.33;;
68386;SDS011;55338;43.062;25.624;2022-10-26T10:09:19;5.70;;;2.07;;
68386;SDS011;55338;43.062;25.624;2022-10-26T10:14:32;7.95;;;2.30;;
68386;SDS011;55338;43.062;25.624;2022-10-26T10:17:19;5.88;;;2.30;;
68386;SDS011;55338;43.062;25.624;2022-10-26T10:19:46;4.47;;;2.38;;
68386;SDS011;55338;43.062;25.624;2022-10-26T10:24:40;3.88;;;1.98;;
68386;SDS011;55338;43.062;25.624;2022-10-26T10:32:16;4.10;;;2.10;;
68386;SDS011;55338;43.062;25.624;2022-10-26T10:34:45;6.53;;;2.67;;
68386;SDS011;55338;43.062;25.624;2022-10-26T10:37:23;6.90;;;3.13;;
68386;SDS011;55338;43.062;25.624;2022-10-26T10:42:25;3.97;;;1.93;;
68386;SDS011;55338;43.062;25.624;2022-10-26T10:44:55;4.47;;;1.83;;
68386;SDS011;55338;43.062;25.624;2022-10-26T10:47:24;3.80;;;2.00;;
68386;SDS011;55338;43.062;25.624;2022-10-26T10:49:54;4.10;;;2.53;;
68386;SDS011;55338;43.062;25.624;2022-10-26T10:52:29;4.43;;;2.08;;
68386;SDS011;55338;43.062;25.624;2022-10-26T11:00:12;3.20;;;1.88;;
68386;SDS011;55338;43.062;25.624;2022-10-26T11:02:47;7.57;;;1.80;;
68386;SDS011;55338;43.062;25.624;2022-10-26T11:08:08;3.80;;;1.97;;
68386;SDS011;55338;43.062;25.624;2022-10-26T11:10:46;5.53;;;1.80;;
68386;SDS011;55338;43.062;25.624;2022-10-26T11:13:28;7.15;;;2.13;;
68386;SDS011;55338;43.062;25.624;2022-10-26T11:16:00;4.75;;;2.05;;
68386;SDS011;55338;43.062;25.624;2022-10-26T11:18:32;5.70;;;2.55;;
68386;SDS011;55338;43.062;25.624;2022-10-26T11:21:24;4.83;;;2.07;;
68386;SDS011;55338;43.062;25.624;2022-10-26T11:26:44;5.32;;;2.00;;
68386;SDS011;55338;43.062;25.624;2022-10-26T11:31:49;5.13;;;1.80;;
68386;SDS011;55338;43.062;25.624;2022-10-26T11:36:56;5.90;;;2.30;;
68386;SDS011;55338;43.062;25.624;2022-10-26T11:39:45;4.78;;;1.95;;
68386;SDS011;55338;43.062;25.624;2022-10-26T11:42:56;5.03;;;2.40;;
68386;SDS011;55338;43.062;25.624;2022-10-26T11:45:25;5.38;;;2.38;;
68386;SDS011;55338;43.062;25.624;2022-10-26T11:48:00;8.60;;;2.03;;
68386;SDS011;55338;43.062;25.624;2022-10-26T11:50:35;5.22;;;1.80;;
68386;SDS011;55338;43.062;25.624;2022-10-26T11:53:10;3.92;;;2.65;;
68386;SDS011;55338;43.062;25.624;2022-10-26T11:55:39;3.75;;;2.20;;
68386;SDS011;55338;43.062;25.624;2022-10-26T11:58:07;6.55;;;1.80;;
68386;SDS011;55338;43.062;25.624;2022-10-26T12:00:36;2.70;;;1.37;;
68386;SDS011;55338;43.062;25.624;2022-10-26T12:03:18;3.42;;;1.83;;
68386;SDS011;55338;43.062;25.624;2022-10-26T12:05:49;4.53;;;2.20;;
68386;SDS011;55338;43.062;25.624;2022-10-26T12:10:49;3.70;;;1.85;;
68386;SDS011;55338;43.062;25.624;2022-10-26T12:13:24;4.80;;;2.60;;
68386;SDS011;55338;43.062;25.624;2022-10-26T12:21:06;4.50;;;2.08;;
68386;SDS011;55338;43.062;25.624;2022-10-26T12:23:37;3.95;;;1.88;;
68386;SDS011;55338;43.062;25.624;2022-10-26T12:26:38;2.70;;;1.70;;
68386;SDS011;55338;43.062;25.624;2022-10-26T12:34:01;5.45;;;2.08;;
68386;SDS011;55338;43.062;25.624;2022-10-26T12:41:57;3.83;;;2.13;;
68386;SDS011;55338;43.062;25.624;2022-10-26T12:48:39;3.60;;;2.50;;
68386;SDS011;55338;43.062;25.624;2022-10-26T12:56:31;4.43;;;2.40;;
68386;SDS011;55338;43.062;25.624;2022-10-26T12:59:18;5.68;;;2.28;;
68386;SDS011;55338;43.062;25.624;2022-10-26T13:02:02;4.13;;;2.45;;
68386;SDS011;55338;43.062;25.624;2022-10-26T13:07:20;4.38;;;2.10;;
68386;SDS011;55338;43.062;25.624;2022-10-26T13:09:59;4.78;;;2.58;;
68386;SDS011;55338;43.062;25.624;2022-10-26T13:12:34;5.20;;;2.90;;
68386;SDS011;55338;43.062;25.624;2022-10-26T13:15:22;5.00;;;2.88;;
68386;SDS011;55338;43.062;25.624;2022-10-26T13:18:06;5.47;;;2.70;;
68386;SDS011;55338;43.062;25.624;2022-10-26T13:23:39;3.45;;;2.33;;
68386;SDS011;55338;43.062;25.624;2022-10-26T13:26:10;5.03;;;2.80;;
68386;SDS011;55338;43.062;25.624;2022-10-26T13:31:04;4.37;;;3.03;;
68386;SDS011;55338;43.062;25.624;2022-10-26T13:33:50;3.80;;;2.35;;
68386;SDS011;55338;43.062;25.624;2022-10-26T13:38:51;5.87;;;3.10;;
68386;SDS011;55338;43.062;25.624;2022-10-26T13:41:21;5.35;;;3.10;;
68386;SDS011;55338;43.062;25.624;2022-10-26T13:43:58;7.40;;;2.85;;
68386;SDS011;55338;43.062;25.624;2022-10-26T13:46:29;4.43;;;2.67;;
68386;SDS011;55338;43.062;25.624;2022-10-26T13:49:12;4.45;;;2.80;;
68386;SDS011;55338;43.062;25.624;2022-10-26T13:51:45;4.20;;;2.73;;
68386;SDS011;55338;43.062;25.624;2022-10-26T13:54:22;5.47;;;2.75;;
68386;SDS011;55338;43.062;25.624;2022-10-26T13:59:31;5.88;;;2.97;;
68386;SDS011;55338;43.062;25.624;2022-10-26T14:02:32;4.78;;;2.58;;
68386;SDS011;55338;43.062;25.624;2022-10-26T14:05:02;9.07;;;3.13;;
68386;SDS011;55338;43.062;25.624;2022-10-26T14:07:34;11.88;;;3.63;;
68386;SDS011;55338;43.062;25.624;2022-10-26T14:10:01;5.15;;;1.98;;
68386;SDS011;55338;43.062;25.624;2022-10-26T14:12:28;9.32;;;2.72;;
68386;SDS011;55338;43.062;25.624;2022-10-26T14:15:07;4.00;;;2.17;;
68386;SDS011;55338;43.062;25.624;2022-10-26T14:17:34;5.20;;;2.00;;
68386;SDS011;55338;43.062;25.624;2022-10-26T14:20:01;7.25;;;2.22;;
68386;SDS011;55338;43.062;25.624;2022-10-26T14:22:28;4.70;;;2.20;;
68386;SDS011;55338;43.062;25.624;2022-10-26T14:24:56;6.65;;;1.90;;
68386;SDS011;55338;43.062;25.624;2022-10-26T14:27:29;4.97;;;2.05;;
68386;SDS011;55338;43.062;25.624;2022-10-26T14:29:57;4.47;;;1.93;;
68386;SDS011;55338;43.062;25.624;2022-10-26T14:32:30;5.10;;;2.10;;
68386;SDS011;55338;43.062;25.624;2022-10-26T14:34:57;4.57;;;2.00;;
68386;SDS011;55338;43.062;25.624;2022-10-26T14:40:04;5.03;;;2.03;;
68386;SDS011;55338;43.062;25.624;2022-10-26T14:42:32;6.43;;;2.87;;
68386;SDS011;55338;43.062;25.624;2022-10-26T14:45:02;9.73;;;2.40;;
68386;SDS011;55338;43.062;25.624;2022-10-26T14:47:29;12.15;;;2.50;;
68386;SDS011;55338;43.062;25.624;2022-10-26T14:49:56;14.45;;;2.42;;
68386;SDS011;55338;43.062;25.624;2022-10-26T14:52:25;7.38;;;2.22;;
68386;SDS011;55338;43.062;25.624;2022-10-26T14:55:20;5.80;;;2.30;;
68386;SDS011;55338;43.062;25.624;2022-10-26T14:57:46;8.43;;;2.75;;
68386;SDS011;55338;43.062;25.624;2022-10-26T15:00:16;8.43;;;2.97;;
68386;SDS011;55338;43.062;25.624;2022-10-26T15:02:48;8.70;;;2.33;;
68386;SDS011;55338;43.062;25.624;2022-10-26T15:05:26;10.95;;;2.47;;
68386;SDS011;55338;43.062;25.624;2022-10-26T15:07:54;6.67;;;1.80;;
68386;SDS011;55338;43.062;25.624;2022-10-26T15:13:24;14.77;;;2.67;;
68386;SDS011;55338;43.062;25.624;2022-10-26T15:18:39;6.38;;;2.03;;
68386;SDS011;55338;43.062;25.624;2022-10-26T15:21:22;5.10;;;2.00;;
68386;SDS011;55338;43.062;25.624;2022-10-26T15:23:51;10.88;;;2.03;;
68386;SDS011;55338;43.062;25.624;2022-10-26T15:26:18;7.32;;;2.13;;
68386;SDS011;55338;43.062;25.624;2022-10-26T15:28:45;13.43;;;2.58;;
68386;SDS011;55338;43.062;25.624;2022-10-26T15:33:42;7.83;;;2.90;;
68386;SDS011;55338;43.062;25.624;2022-10-26T15:38:44;6.38;;;2.78;;
68386;SDS011;55338;43.062;25.624;2022-10-26T15:41:17;6.37;;;2.10;;
68386;SDS011;55338;43.062;25.624;2022-10-26T15:43:47;4.90;;;2.15;;
68386;SDS011;55338;43.062;25.624;2022-10-26T15:46:14;9.50;;;1.90;;
68386;SDS011;55338;43.062;25.624;2022-10-26T15:48:40;6.90;;;2.22;;
68386;SDS011;55338;43.062;25.624;2022-10-26T15:51:09;6.65;;;2.10;;
68386;SDS011;55338;43.062;25.624;2022-10-26T15:53:37;9.47;;;2.53;;
68386;SDS011;55338;43.062;25.624;2022-10-26T15:56:03;7.40;;;2.33;;
68386;SDS011;55338;43.062;25.624;2022-10-26T15:58:36;7.65;;;2.25;;
68386;SDS011;55338;43.062;25.624;2022-10-26T16:01:02;8.97;;;2.93;;
68386;SDS011;55338;43.062;25.624;2022-10-26T16:03:28;15.32;;;2.40;;
68386;SDS011;55338;43.062;25.624;2022-10-26T16:05:55;14.43;;;2.50;;
68386;SDS011;55338;43.062;25.624;2022-10-26T16:08:22;13.32;;;2.75;;
68386;SDS011;55338;43.062;25.624;2022-10-26T16:10:51;6.93;;;2.00;;
68386;SDS011;55338;43.062;25.624;2022-10-26T16:13:17;10.00;;;2.95;;
68386;SDS011;55338;43.062;25.624;2022-10-26T16:15:43;12.43;;;2.60;;
68386;SDS011;55338;43.062;25.624;2022-10-26T16:18:09;9.77;;;2.90;;
68386;SDS011;55338;43.062;25.624;2022-10-26T16:20:35;12.77;;;2.03;;
68386;SDS011;55338;43.062;25.624;2022-10-26T16:23:01;13.47;;;2.70;;
68386;SDS011;55338;43.062;25.624;2022-10-26T16:25:32;12.43;;;2.50;;
68386;SDS011;55338;43.062;25.624;2022-10-26T16:28:04;12.85;;;2.08;;
68386;SDS011;55338;43.062;25.624;2022-10-26T16:30:30;8.80;;;2.17;;
68386;SDS011;55338;43.062;25.624;2022-10-26T16:32:56;9.25;;;2.08;;
68386;SDS011;55338;43.062;25.624;2022-10-26T16:35:22;10.32;;;2.45;;
68386;SDS011;55338;43.062;25.624;2022-10-26T16:37:48;8.45;;;2.17;;
68386;SDS011;55338;43.062;25.624;2022-10-26T16:40:14;31.93;;;3.77;;
68386;SDS011;55338;43.062;25.624;2022-10-26T16:42:40;24.23;;;3.42;;
68386;SDS011;55338;43.062;25.624;2022-10-26T16:45:09;33.70;;;5.25;;
68386;SDS011;55338;43.062;25.624;2022-10-26T16:47:35;17.23;;;3.17;;
68386;SDS011;55338;43.062;25.624;2022-10-26T16:50:04;14.75;;;3.08;;
68386;SDS011;55338;43.062;25.624;2022-10-26T16:52:32;19.67;;;4.00;;
68386;SDS011;55338;43.062;25.624;2022-10-26T16:54:59;11.80;;;2.22;;
68386;SDS011;55338;43.062;25.624;2022-10-26T16:57:25;16.70;;;2.65;;
68386;SDS011;55338;43.062;25.624;2022-10-26T16:59:51;16.03;;;2.73;;
68386;SDS011;55338;43.062;25.624;2022-10-26T17:02:17;14.07;;;2.83;;
68386;SDS011;55338;43.062;25.624;2022-10-26T17:04:43;9.10;;;2.22;;
68386;SDS011;55338;43.062;25.624;2022-10-26T17:07:09;6.23;;;2.17;;
68386;SDS011;55338;43.062;25.624;2022-10-26T17:09:35;8.25;;;2.30;;
68386;SDS011;55338;43.062;25.624;2022-10-26T17:12:01;9.40;;;2.35;;
68386;SDS011;55338;43.062;25.624;2022-10-26T17:14:27;8.97;;;2.37;;
68386;SDS011;55338;43.062;25.624;2022-10-26T17:16:53;11.65;;;2.47;;
68386;SDS011;55338;43.062;25.624;2022-10-26T17:19:18;17.27;;;2.60;;
68386;SDS011;55338;43.062;25.624;2022-10-26T17:21:44;7.93;;;2.20;;
68386;SDS011;55338;43.062;25.624;2022-10-26T17:24:10;16.33;;;2.33;;